sensor_id;sensor_type;location;lat;lon;timestamp;P1;durP1;ratioP1;P2;durP2;ratioP2
30824;SDS011;17550;45.486;12.222;2023-06-04T00:00:43;12.30;;;8.25;;
30824;SDS011;17550;45.486;12.222;2023-06-04T00:03:09;12.45;;;8.35;;
30824;SDS011;17550;45.486;12.222;2023-06-04T00:05:35;11.25;;;7.63;;
30824;SDS011;17550;45.486;12.222;2023-06-04T00:08:00;13.38;;;7.97;;
30824;SDS011;17550;45.486;12.222;2023-06-04T00:10:26;10.95;;;7.78;;
30824;SDS011;17550;45.486;12.222;2023-06-04T00:12:52;14.60;;;7.95;;
30824;SDS011;17550;45.486;12.222;2023-06-04T00:15:17;11.15;;;7.43;;
30824;SDS011;17550;45.486;12.222;2023-06-04T00:17:43;15.82;;;7.55;;
30824;SDS011;17550;45.486;12.222;2023-06-04T00:20:09;14.73;;;8.10;;
30824;SDS011;17550;45.486;12.222;2023-06-04T00:22:35;14.75;;;7.70;;
30824;SDS011;17550;45.486;12.222;2023-06-04T00:25:01;10.77;;;7.55;;
30824;SDS011;17550;45.486;12.222;2023-06-04T00:27:28;14.43;;;7.85;;
30824;SDS011;17550;45.486;12.222;2023-06-04T00:29:53;14.95;;;8.55;;
30824;SDS011;17550;45.486;12.222;2023-06-04T00:32:19;12.45;;;7.13;;
30824;SDS011;17550;45.486;12.222;2023-06-04T00:34:52;12.50;;;7.28;;
30824;SDS011;17550;45.486;12.222;2023-06-04T00:37:23;13.90;;;9.02;;
30824;SDS011;17550;45.486;12.222;2023-06-04T00:39:49;14.68;;;8.27;;
30824;SDS011;17550;45.486;12.222;2023-06-04T00:42:15;15.85;;;9.13;;
30824;SDS011;17550;45.486;12.222;2023-06-04T00:44:41;11.52;;;7.72;;
30824;SDS011;17550;45.486;12.222;2023-06-04T00:47:13;14.68;;;7.95;;
30824;SDS011;17550;45.486;12.222;2023-06-04T00:49:43;12.25;;;7.47;;
30824;SDS011;17550;45.486;12.222;2023-06-04T00:52:10;9.98;;;8.30;;
30824;SDS011;17550;45.486;12.222;2023-06-04T00:54:37;12.75;;;7.88;;
30824;SDS011;17550;45.486;12.222;2023-06-04T00:57:04;12.40;;;7.72;;
30824;SDS011;17550;45.486;12.222;2023-06-04T00:59:30;12.13;;;8.50;;
30824;SDS011;17550;45.486;12.222;2023-06-04T01:02:11;10.98;;;7.65;;
30824;SDS011;17550;45.486;12.222;2023-06-04T01:07:23;12.50;;;8.35;;
30824;SDS011;17550;45.486;12.222;2023-06-04T01:09:53;12.52;;;8.40;;
30824;SDS011;17550;45.486;12.222;2023-06-04T01:12:19;10.10;;;7.82;;
30824;SDS011;17550;45.486;12.222;2023-06-04T01:14:45;13.98;;;8.95;;
30824;SDS011;17550;45.486;12.222;2023-06-04T01:22:42;12.82;;;8.18;;
30824;SDS011;17550;45.486;12.222;2023-06-04T01:27:46;14.25;;;9.30;;
30824;SDS011;17550;45.486;12.222;2023-06-04T01:30:14;15.35;;;8.57;;
30824;SDS011;17550;45.486;12.222;2023-06-04T01:32:41;12.30;;;8.57;;
30824;SDS011;17550;45.486;12.222;2023-06-04T01:35:08;12.25;;;9.05;;
30824;SDS011;17550;45.486;12.222;2023-06-04T01:37:36;12.10;;;8.23;;
30824;SDS011;17550;45.486;12.222;2023-06-04T01:40:01;11.02;;;9.15;;
30824;SDS011;17550;45.486;12.222;2023-06-04T01:42:28;14.40;;;9.50;;
30824;SDS011;17550;45.486;12.222;2023-06-04T01:44:53;17.33;;;10.63;;
30824;SDS011;17550;45.486;12.222;2023-06-04T01:47:19;14.70;;;10.35;;
30824;SDS011;17550;45.486;12.222;2023-06-04T01:49:45;15.93;;;9.07;;
30824;SDS011;17550;45.486;12.222;2023-06-04T01:52:10;16.70;;;10.07;;
30824;SDS011;17550;45.486;12.222;2023-06-04T01:54:36;16.83;;;10.05;;
30824;SDS011;17550;45.486;12.222;2023-06-04T01:57:03;15.07;;;10.50;;
30824;SDS011;17550;45.486;12.222;2023-06-04T01:59:30;12.45;;;9.82;;
30824;SDS011;17550;45.486;12.222;2023-06-04T02:01:57;18.05;;;11.13;;
30824;SDS011;17550;45.486;12.222;2023-06-04T02:04:22;14.75;;;10.88;;
30824;SDS011;17550;45.486;12.222;2023-06-04T02:06:49;18.80;;;11.05;;
30824;SDS011;17550;45.486;12.222;2023-06-04T02:09:15;16.73;;;11.52;;
30824;SDS011;17550;45.486;12.222;2023-06-04T02:11:41;20.85;;;12.75;;
30824;SDS011;17550;45.486;12.222;2023-06-04T02:14:07;15.77;;;12.70;;
30824;SDS011;17550;45.486;12.222;2023-06-04T02:16:32;20.00;;;13.80;;
30824;SDS011;17550;45.486;12.222;2023-06-04T02:18:58;16.52;;;13.25;;
30824;SDS011;17550;45.486;12.222;2023-06-04T02:21:24;15.57;;;13.30;;
30824;SDS011;17550;45.486;12.222;2023-06-04T02:23:50;19.80;;;15.88;;
30824;SDS011;17550;45.486;12.222;2023-06-04T02:26:15;21.33;;;16.25;;
30824;SDS011;17550;45.486;12.222;2023-06-04T02:28:41;26.33;;;18.25;;
30824;SDS011;17550;45.486;12.222;2023-06-04T02:31:07;22.30;;;18.38;;
30824;SDS011;17550;45.486;12.222;2023-06-04T02:33:32;23.25;;;18.58;;
30824;SDS011;17550;45.486;12.222;2023-06-04T02:35:58;22.60;;;19.45;;
30824;SDS011;17550;45.486;12.222;2023-06-04T02:38:24;21.42;;;17.35;;
30824;SDS011;17550;45.486;12.222;2023-06-04T02:40:52;26.38;;;19.23;;
30824;SDS011;17550;45.486;12.222;2023-06-04T02:43:18;24.52;;;18.10;;
30824;SDS011;17550;45.486;12.222;2023-06-04T02:45:44;25.98;;;19.58;;
30824;SDS011;17550;45.486;12.222;2023-06-04T02:48:10;24.20;;;18.90;;
30824;SDS011;17550;45.486;12.222;2023-06-04T02:50:36;27.25;;;20.27;;
30824;SDS011;17550;45.486;12.222;2023-06-04T02:53:01;30.10;;;20.83;;
30824;SDS011;17550;45.486;12.222;2023-06-04T02:55:27;23.63;;;20.77;;
30824;SDS011;17550;45.486;12.222;2023-06-04T02:57:53;23.17;;;20.30;;
30824;SDS011;17550;45.486;12.222;2023-06-04T03:00:18;27.38;;;21.90;;
30824;SDS011;17550;45.486;12.222;2023-06-04T03:02:47;32.20;;;23.95;;
30824;SDS011;17550;45.486;12.222;2023-06-04T03:05:14;30.65;;;24.83;;
30824;SDS011;17550;45.486;12.222;2023-06-04T03:07:42;28.10;;;22.55;;
30824;SDS011;17550;45.486;12.222;2023-06-04T03:10:10;30.50;;;23.27;;
30824;SDS011;17550;45.486;12.222;2023-06-04T03:12:37;27.05;;;23.40;;
30824;SDS011;17550;45.486;12.222;2023-06-04T03:15:02;34.22;;;24.42;;
30824;SDS011;17550;45.486;12.222;2023-06-04T03:17:29;32.33;;;23.35;;
30824;SDS011;17550;45.486;12.222;2023-06-04T03:19:56;33.15;;;23.98;;
30824;SDS011;17550;45.486;12.222;2023-06-04T03:22:22;36.15;;;23.90;;
30824;SDS011;17550;45.486;12.222;2023-06-04T03:24:48;26.95;;;22.80;;
30824;SDS011;17550;45.486;12.222;2023-06-04T03:27:13;25.95;;;23.15;;
30824;SDS011;17550;45.486;12.222;2023-06-04T03:29:39;28.45;;;23.67;;
30824;SDS011;17550;45.486;12.222;2023-06-04T03:32:05;26.88;;;22.73;;
30824;SDS011;17550;45.486;12.222;2023-06-04T03:34:31;26.58;;;22.13;;
30824;SDS011;17550;45.486;12.222;2023-06-04T03:36:58;28.80;;;23.08;;
30824;SDS011;17550;45.486;12.222;2023-06-04T03:39:24;26.50;;;22.25;;
30824;SDS011;17550;45.486;12.222;2023-06-04T03:41:50;31.73;;;23.95;;
30824;SDS011;17550;45.486;12.222;2023-06-04T03:44:16;28.75;;;23.52;;
30824;SDS011;17550;45.486;12.222;2023-06-04T03:46:43;29.23;;;24.13;;
30824;SDS011;17550;45.486;12.222;2023-06-04T03:49:09;29.60;;;23.42;;
30824;SDS011;17550;45.486;12.222;2023-06-04T03:51:39;30.75;;;23.20;;
30824;SDS011;17550;45.486;12.222;2023-06-04T03:54:06;24.92;;;20.45;;
30824;SDS011;17550;45.486;12.222;2023-06-04T03:56:32;26.73;;;20.38;;
30824;SDS011;17550;45.486;12.222;2023-06-04T03:58:57;29.73;;;18.67;;
30824;SDS011;17550;45.486;12.222;2023-06-04T04:01:23;21.90;;;18.13;;
30824;SDS011;17550;45.486;12.222;2023-06-04T04:03:49;27.90;;;19.17;;
30824;SDS011;17550;45.486;12.222;2023-06-04T04:06:16;22.33;;;19.17;;
30824;SDS011;17550;45.486;12.222;2023-06-04T04:08:42;22.35;;;17.38;;
30824;SDS011;17550;45.486;12.222;2023-06-04T04:11:09;29.27;;;18.98;;
30824;SDS011;17550;45.486;12.222;2023-06-04T04:13:35;25.15;;;17.63;;
30824;SDS011;17550;45.486;12.222;2023-06-04T04:16:01;21.92;;;17.33;;
30824;SDS011;17550;45.486;12.222;2023-06-04T04:18:27;21.80;;;17.33;;
30824;SDS011;17550;45.486;12.222;2023-06-04T04:20:52;23.45;;;17.10;;
30824;SDS011;17550;45.486;12.222;2023-06-04T04:23:18;20.98;;;17.27;;
30824;SDS011;17550;45.486;12.222;2023-06-04T04:25:45;20.15;;;16.08;;
30824;SDS011;17550;45.486;12.222;2023-06-04T04:28:11;22.20;;;17.75;;
30824;SDS011;17550;45.486;12.222;2023-06-04T04:30:37;25.52;;;19.38;;
30824;SDS011;17550;45.486;12.222;2023-06-04T04:33:02;26.70;;;18.80;;
30824;SDS011;17550;45.486;12.222;2023-06-04T04:35:31;25.65;;;19.38;;
30824;SDS011;17550;45.486;12.222;2023-06-04T04:38:00;22.98;;;20.42;;
30824;SDS011;17550;45.486;12.222;2023-06-04T04:40:29;23.50;;;20.13;;
30824;SDS011;17550;45.486;12.222;2023-06-04T04:42:55;23.60;;;19.65;;
30824;SDS011;17550;45.486;12.222;2023-06-04T04:45:21;22.98;;;19.15;;
30824;SDS011;17550;45.486;12.222;2023-06-04T04:47:47;23.60;;;18.95;;
30824;SDS011;17550;45.486;12.222;2023-06-04T04:50:13;24.30;;;17.75;;
30824;SDS011;17550;45.486;12.222;2023-06-04T04:52:38;23.40;;;19.35;;
30824;SDS011;17550;45.486;12.222;2023-06-04T04:55:04;21.50;;;16.80;;
30824;SDS011;17550;45.486;12.222;2023-06-04T04:57:30;20.30;;;17.88;;
30824;SDS011;17550;45.486;12.222;2023-06-04T04:59:56;19.20;;;16.40;;
30824;SDS011;17550;45.486;12.222;2023-06-04T05:02:22;21.65;;;16.95;;
30824;SDS011;17550;45.486;12.222;2023-06-04T05:04:47;20.20;;;16.45;;
30824;SDS011;17550;45.486;12.222;2023-06-04T05:07:13;17.80;;;15.85;;
30824;SDS011;17550;45.486;12.222;2023-06-04T05:09:39;23.60;;;16.27;;
30824;SDS011;17550;45.486;12.222;2023-06-04T05:12:05;22.40;;;16.23;;
30824;SDS011;17550;45.486;12.222;2023-06-04T05:14:31;23.70;;;17.27;;
30824;SDS011;17550;45.486;12.222;2023-06-04T05:17:00;24.38;;;17.13;;
30824;SDS011;17550;45.486;12.222;2023-06-04T05:19:26;24.40;;;19.10;;
30824;SDS011;17550;45.486;12.222;2023-06-04T05:21:51;25.67;;;19.42;;
30824;SDS011;17550;45.486;12.222;2023-06-04T05:24:17;23.27;;;18.08;;
30824;SDS011;17550;45.486;12.222;2023-06-04T05:26:43;23.48;;;18.88;;
30824;SDS011;17550;45.486;12.222;2023-06-04T05:29:09;21.90;;;18.60;;
30824;SDS011;17550;45.486;12.222;2023-06-04T05:31:34;24.27;;;18.15;;
30824;SDS011;17550;45.486;12.222;2023-06-04T05:34:02;26.38;;;18.42;;
30824;SDS011;17550;45.486;12.222;2023-06-04T05:36:29;23.13;;;17.90;;
30824;SDS011;17550;45.486;12.222;2023-06-04T05:38:56;22.05;;;16.95;;
30824;SDS011;17550;45.486;12.222;2023-06-04T05:41:25;23.13;;;16.75;;
30824;SDS011;17550;45.486;12.222;2023-06-04T05:43:52;21.23;;;17.20;;
30824;SDS011;17550;45.486;12.222;2023-06-04T05:46:18;18.80;;;15.13;;
30824;SDS011;17550;45.486;12.222;2023-06-04T05:48:44;18.27;;;14.50;;
30824;SDS011;17550;45.486;12.222;2023-06-04T05:51:10;20.77;;;12.85;;
30824;SDS011;17550;45.486;12.222;2023-06-04T05:53:37;18.05;;;13.13;;
30824;SDS011;17550;45.486;12.222;2023-06-04T05:56:03;17.17;;;12.75;;
30824;SDS011;17550;45.486;12.222;2023-06-04T05:58:29;20.05;;;12.15;;
30824;SDS011;17550;45.486;12.222;2023-06-04T06:00:55;15.07;;;10.57;;
30824;SDS011;17550;45.486;12.222;2023-06-04T06:03:21;15.30;;;11.57;;
30824;SDS011;17550;45.486;12.222;2023-06-04T06:05:46;17.63;;;12.07;;
30824;SDS011;17550;45.486;12.222;2023-06-04T06:08:13;16.20;;;10.35;;
30824;SDS011;17550;45.486;12.222;2023-06-04T06:10:39;17.58;;;11.68;;
30824;SDS011;17550;45.486;12.222;2023-06-04T06:13:05;14.85;;;11.45;;
30824;SDS011;17550;45.486;12.222;2023-06-04T06:15:30;16.02;;;11.20;;
30824;SDS011;17550;45.486;12.222;2023-06-04T06:17:56;12.15;;;10.18;;
30824;SDS011;17550;45.486;12.222;2023-06-04T06:20:22;15.30;;;10.75;;
30824;SDS011;17550;45.486;12.222;2023-06-04T06:22:48;16.10;;;11.60;;
30824;SDS011;17550;45.486;12.222;2023-06-04T06:25:13;13.50;;;10.57;;
30824;SDS011;17550;45.486;12.222;2023-06-04T06:27:40;13.52;;;10.00;;
30824;SDS011;17550;45.486;12.222;2023-06-04T06:30:07;14.20;;;10.63;;
30824;SDS011;17550;45.486;12.222;2023-06-04T06:32:34;11.10;;;9.50;;
30824;SDS011;17550;45.486;12.222;2023-06-04T06:35:00;14.55;;;9.80;;
30824;SDS011;17550;45.486;12.222;2023-06-04T06:37:26;15.20;;;9.55;;
30824;SDS011;17550;45.486;12.222;2023-06-04T06:39:52;14.68;;;9.13;;
30824;SDS011;17550;45.486;12.222;2023-06-04T06:42:17;12.27;;;8.90;;
30824;SDS011;17550;45.486;12.222;2023-06-04T06:44:44;11.57;;;9.38;;
30824;SDS011;17550;45.486;12.222;2023-06-04T06:47:10;14.02;;;9.68;;
30824;SDS011;17550;45.486;12.222;2023-06-04T06:49:38;12.52;;;9.75;;
30824;SDS011;17550;45.486;12.222;2023-06-04T06:52:07;12.63;;;9.15;;
30824;SDS011;17550;45.486;12.222;2023-06-04T06:54:34;11.95;;;8.25;;
30824;SDS011;17550;45.486;12.222;2023-06-04T06:56:59;16.75;;;8.57;;
30824;SDS011;17550;45.486;12.222;2023-06-04T06:59:25;15.30;;;8.63;;
30824;SDS011;17550;45.486;12.222;2023-06-04T07:01:52;11.82;;;8.02;;
30824;SDS011;17550;45.486;12.222;2023-06-04T07:04:18;14.25;;;8.93;;
30824;SDS011;17550;45.486;12.222;2023-06-04T07:06:43;10.93;;;8.23;;
30824;SDS011;17550;45.486;12.222;2023-06-04T07:09:09;13.95;;;8.50;;
30824;SDS011;17550;45.486;12.222;2023-06-04T07:11:35;12.88;;;7.80;;
30824;SDS011;17550;45.486;12.222;2023-06-04T07:14:01;14.88;;;8.00;;
30824;SDS011;17550;45.486;12.222;2023-06-04T07:16:29;10.48;;;7.07;;
30824;SDS011;17550;45.486;12.222;2023-06-04T07:18:55;11.27;;;7.15;;
30824;SDS011;17550;45.486;12.222;2023-06-04T07:21:21;13.15;;;7.97;;
30824;SDS011;17550;45.486;12.222;2023-06-04T07:23:49;11.80;;;7.65;;
30824;SDS011;17550;45.486;12.222;2023-06-04T07:26:16;12.23;;;7.45;;
30824;SDS011;17550;45.486;12.222;2023-06-04T07:28:43;12.80;;;7.80;;
30824;SDS011;17550;45.486;12.222;2023-06-04T07:31:09;11.48;;;6.95;;
30824;SDS011;17550;45.486;12.222;2023-06-04T07:33:35;9.68;;;7.55;;
30824;SDS011;17550;45.486;12.222;2023-06-04T07:36:08;10.70;;;7.03;;
30824;SDS011;17550;45.486;12.222;2023-06-04T07:41:05;9.45;;;7.10;;
30824;SDS011;17550;45.486;12.222;2023-06-04T07:43:33;12.85;;;6.68;;
30824;SDS011;17550;45.486;12.222;2023-06-04T07:46:03;9.37;;;6.40;;
30824;SDS011;17550;45.486;12.222;2023-06-04T07:48:29;12.23;;;7.05;;
30824;SDS011;17550;45.486;12.222;2023-06-04T07:50:58;8.85;;;6.57;;
30824;SDS011;17550;45.486;12.222;2023-06-04T07:53:24;11.00;;;7.22;;
30824;SDS011;17550;45.486;12.222;2023-06-04T07:55:50;9.82;;;7.07;;
30824;SDS011;17550;45.486;12.222;2023-06-04T07:58:16;9.00;;;7.35;;
30824;SDS011;17550;45.486;12.222;2023-06-04T08:00:42;14.05;;;7.60;;
30824;SDS011;17550;45.486;12.222;2023-06-04T08:03:07;15.43;;;8.00;;
30824;SDS011;17550;45.486;12.222;2023-06-04T08:05:34;9.75;;;6.75;;
30824;SDS011;17550;45.486;12.222;2023-06-04T08:08:00;10.63;;;7.90;;
30824;SDS011;17550;45.486;12.222;2023-06-04T08:10:26;13.63;;;7.63;;
30824;SDS011;17550;45.486;12.222;2023-06-04T08:12:52;18.00;;;8.45;;
30824;SDS011;17550;45.486;12.222;2023-06-04T08:15:17;13.18;;;8.13;;
30824;SDS011;17550;45.486;12.222;2023-06-04T08:17:43;10.63;;;8.30;;
30824;SDS011;17550;45.486;12.222;2023-06-04T08:20:09;10.18;;;8.10;;
30824;SDS011;17550;45.486;12.222;2023-06-04T08:22:34;14.25;;;9.32;;
30824;SDS011;17550;45.486;12.222;2023-06-04T08:25:00;11.85;;;8.48;;
30824;SDS011;17550;45.486;12.222;2023-06-04T08:27:26;16.48;;;9.00;;
30824;SDS011;17550;45.486;12.222;2023-06-04T08:29:52;11.32;;;8.90;;
30824;SDS011;17550;45.486;12.222;2023-06-04T08:32:18;15.48;;;9.70;;
30824;SDS011;17550;45.486;12.222;2023-06-04T08:34:43;12.25;;;8.45;;
30824;SDS011;17550;45.486;12.222;2023-06-04T08:37:09;12.90;;;8.25;;
30824;SDS011;17550;45.486;12.222;2023-06-04T08:39:35;18.27;;;10.00;;
30824;SDS011;17550;45.486;12.222;2023-06-04T08:42:03;12.13;;;9.13;;
30824;SDS011;17550;45.486;12.222;2023-06-04T08:44:32;14.25;;;8.95;;
30824;SDS011;17550;45.486;12.222;2023-06-04T08:47:02;13.13;;;8.90;;
30824;SDS011;17550;45.486;12.222;2023-06-04T08:49:33;15.10;;;9.10;;
30824;SDS011;17550;45.486;12.222;2023-06-04T08:52:01;15.43;;;8.38;;
30824;SDS011;17550;45.486;12.222;2023-06-04T08:54:27;13.07;;;9.70;;
30824;SDS011;17550;45.486;12.222;2023-06-04T08:56:55;10.43;;;8.25;;
30824;SDS011;17550;45.486;12.222;2023-06-04T08:59:22;11.95;;;8.50;;
30824;SDS011;17550;45.486;12.222;2023-06-04T09:01:50;14.65;;;8.45;;
30824;SDS011;17550;45.486;12.222;2023-06-04T09:04:18;14.45;;;9.30;;
30824;SDS011;17550;45.486;12.222;2023-06-04T09:06:44;14.35;;;9.70;;
30824;SDS011;17550;45.486;12.222;2023-06-04T09:09:11;12.30;;;9.07;;
30824;SDS011;17550;45.486;12.222;2023-06-04T09:11:53;19.92;;;9.60;;
30824;SDS011;17550;45.486;12.222;2023-06-04T09:14:20;11.35;;;8.32;;
30824;SDS011;17550;45.486;12.222;2023-06-04T09:16:46;12.85;;;8.98;;
30824;SDS011;17550;45.486;12.222;2023-06-04T09:19:16;12.80;;;9.70;;
30824;SDS011;17550;45.486;12.222;2023-06-04T09:21:51;15.27;;;9.38;;
30824;SDS011;17550;45.486;12.222;2023-06-04T09:29:38;12.02;;;9.50;;
30824;SDS011;17550;45.486;12.222;2023-06-04T09:32:05;13.23;;;9.95;;
30824;SDS011;17550;45.486;12.222;2023-06-04T09:34:31;19.65;;;11.05;;
30824;SDS011;17550;45.486;12.222;2023-06-04T09:36:57;16.50;;;10.32;;
30824;SDS011;17550;45.486;12.222;2023-06-04T09:39:23;19.67;;;10.18;;
30824;SDS011;17550;45.486;12.222;2023-06-04T09:41:59;11.63;;;8.85;;
30824;SDS011;17550;45.486;12.222;2023-06-04T09:44:25;13.55;;;9.05;;
30824;SDS011;17550;45.486;12.222;2023-06-04T09:46:55;15.88;;;9.73;;
30824;SDS011;17550;45.486;12.222;2023-06-04T09:49:21;12.10;;;9.25;;
30824;SDS011;17550;45.486;12.222;2023-06-04T09:51:47;14.02;;;9.35;;
30824;SDS011;17550;45.486;12.222;2023-06-04T09:54:13;11.48;;;8.85;;
30824;SDS011;17550;45.486;12.222;2023-06-04T09:56:40;18.83;;;10.57;;
30824;SDS011;17550;45.486;12.222;2023-06-04T09:59:06;19.67;;;10.50;;
30824;SDS011;17550;45.486;12.222;2023-06-04T10:01:34;18.23;;;11.35;;
30824;SDS011;17550;45.486;12.222;2023-06-04T10:04:03;16.23;;;10.77;;
30824;SDS011;17550;45.486;12.222;2023-06-04T10:06:32;14.18;;;9.88;;
30824;SDS011;17550;45.486;12.222;2023-06-04T10:08:59;13.77;;;10.15;;
30824;SDS011;17550;45.486;12.222;2023-06-04T10:11:34;15.35;;;10.10;;
30824;SDS011;17550;45.486;12.222;2023-06-04T10:14:03;15.82;;;9.82;;
30824;SDS011;17550;45.486;12.222;2023-06-04T10:16:33;16.80;;;10.98;;
30824;SDS011;17550;45.486;12.222;2023-06-04T10:19:06;17.17;;;9.93;;
30824;SDS011;17550;45.486;12.222;2023-06-04T10:21:33;11.10;;;9.07;;
30824;SDS011;17550;45.486;12.222;2023-06-04T10:24:02;17.85;;;10.98;;
30824;SDS011;17550;45.486;12.222;2023-06-04T10:26:28;14.18;;;8.88;;
30824;SDS011;17550;45.486;12.222;2023-06-04T10:28:56;15.38;;;10.00;;
30824;SDS011;17550;45.486;12.222;2023-06-04T10:31:23;17.77;;;9.32;;
30824;SDS011;17550;45.486;12.222;2023-06-04T10:33:53;13.25;;;9.45;;
30824;SDS011;17550;45.486;12.222;2023-06-04T10:36:20;12.82;;;9.77;;
30824;SDS011;17550;45.486;12.222;2023-06-04T10:38:51;12.93;;;9.45;;
30824;SDS011;17550;45.486;12.222;2023-06-04T10:41:19;14.40;;;8.82;;
30824;SDS011;17550;45.486;12.222;2023-06-04T10:43:47;12.52;;;9.07;;
30824;SDS011;17550;45.486;12.222;2023-06-04T10:46:20;12.98;;;8.98;;
30824;SDS011;17550;45.486;12.222;2023-06-04T10:48:49;10.88;;;8.52;;
30824;SDS011;17550;45.486;12.222;2023-06-04T10:51:37;14.90;;;7.93;;
30824;SDS011;17550;45.486;12.222;2023-06-04T10:54:02;13.43;;;9.30;;
30824;SDS011;17550;45.486;12.222;2023-06-04T10:56:32;14.68;;;9.32;;
30824;SDS011;17550;45.486;12.222;2023-06-04T10:59:00;15.23;;;9.83;;
30824;SDS011;17550;45.486;12.222;2023-06-04T11:01:37;11.93;;;8.85;;
30824;SDS011;17550;45.486;12.222;2023-06-04T11:04:03;20.52;;;10.15;;
30824;SDS011;17550;45.486;12.222;2023-06-04T11:06:29;10.95;;;8.88;;
30824;SDS011;17550;45.486;12.222;2023-06-04T11:09:03;15.55;;;8.85;;
30824;SDS011;17550;45.486;12.222;2023-06-04T11:11:33;10.23;;;8.60;;
30824;SDS011;17550;45.486;12.222;2023-06-04T11:14:11;13.60;;;8.30;;
30824;SDS011;17550;45.486;12.222;2023-06-04T11:16:42;12.05;;;9.43;;
30824;SDS011;17550;45.486;12.222;2023-06-04T11:19:08;15.93;;;8.02;;
30824;SDS011;17550;45.486;12.222;2023-06-04T11:21:34;16.73;;;9.07;;
30824;SDS011;17550;45.486;12.222;2023-06-04T11:24:01;15.63;;;9.48;;
30824;SDS011;17550;45.486;12.222;2023-06-04T11:26:34;15.27;;;8.32;;
30824;SDS011;17550;45.486;12.222;2023-06-04T11:29:01;12.60;;;8.98;;
30824;SDS011;17550;45.486;12.222;2023-06-04T11:31:40;13.57;;;9.32;;
30824;SDS011;17550;45.486;12.222;2023-06-04T11:34:07;15.02;;;9.55;;
30824;SDS011;17550;45.486;12.222;2023-06-04T11:36:34;11.98;;;8.50;;
30824;SDS011;17550;45.486;12.222;2023-06-04T11:39:01;10.90;;;7.78;;
30824;SDS011;17550;45.486;12.222;2023-06-04T11:41:29;10.95;;;8.13;;
30824;SDS011;17550;45.486;12.222;2023-06-04T11:43:56;10.43;;;8.50;;
30824;SDS011;17550;45.486;12.222;2023-06-04T11:46:22;11.93;;;8.75;;
30824;SDS011;17550;45.486;12.222;2023-06-04T11:48:52;11.32;;;7.82;;
30824;SDS011;17550;45.486;12.222;2023-06-04T11:51:19;13.43;;;8.63;;
30824;SDS011;17550;45.486;12.222;2023-06-04T11:53:46;9.98;;;8.55;;
30824;SDS011;17550;45.486;12.222;2023-06-04T11:56:12;12.82;;;8.27;;
30824;SDS011;17550;45.486;12.222;2023-06-04T11:58:38;11.65;;;8.15;;
30824;SDS011;17550;45.486;12.222;2023-06-04T12:01:05;10.70;;;8.45;;
30824;SDS011;17550;45.486;12.222;2023-06-04T12:03:36;11.43;;;7.60;;
30824;SDS011;17550;45.486;12.222;2023-06-04T12:06:13;10.65;;;8.00;;
30824;SDS011;17550;45.486;12.222;2023-06-04T12:08:53;13.23;;;8.35;;
30824;SDS011;17550;45.486;12.222;2023-06-04T12:11:31;10.02;;;7.95;;
30824;SDS011;17550;45.486;12.222;2023-06-04T12:13:58;11.55;;;7.53;;
30824;SDS011;17550;45.486;12.222;2023-06-04T12:16:40;11.68;;;8.32;;
30824;SDS011;17550;45.486;12.222;2023-06-04T12:19:07;9.90;;;7.57;;
30824;SDS011;17550;45.486;12.222;2023-06-04T12:21:37;10.90;;;8.20;;
30824;SDS011;17550;45.486;12.222;2023-06-04T12:24:13;13.82;;;7.53;;
30824;SDS011;17550;45.486;12.222;2023-06-04T12:26:40;15.45;;;7.20;;
30824;SDS011;17550;45.486;12.222;2023-06-04T12:29:14;9.05;;;7.30;;
30824;SDS011;17550;45.486;12.222;2023-06-04T12:31:43;9.13;;;7.05;;
30824;SDS011;17550;45.486;12.222;2023-06-04T12:34:10;7.80;;;7.00;;
30824;SDS011;17550;45.486;12.222;2023-06-04T12:36:38;11.77;;;7.00;;
30824;SDS011;17550;45.486;12.222;2023-06-04T12:39:04;13.00;;;6.60;;
30824;SDS011;17550;45.486;12.222;2023-06-04T12:41:31;10.05;;;6.65;;
30824;SDS011;17550;45.486;12.222;2023-06-04T12:43:58;11.70;;;6.80;;
30824;SDS011;17550;45.486;12.222;2023-06-04T12:46:25;19.60;;;7.82;;
30824;SDS011;17550;45.486;12.222;2023-06-04T12:48:51;11.23;;;7.20;;
30824;SDS011;17550;45.486;12.222;2023-06-04T12:51:18;8.75;;;6.75;;
30824;SDS011;17550;45.486;12.222;2023-06-04T12:53:45;10.50;;;6.55;;
30824;SDS011;17550;45.486;12.222;2023-06-04T12:56:12;8.93;;;6.65;;
30824;SDS011;17550;45.486;12.222;2023-06-04T12:58:38;10.80;;;7.22;;
30824;SDS011;17550;45.486;12.222;2023-06-04T13:01:05;10.50;;;6.85;;
30824;SDS011;17550;45.486;12.222;2023-06-04T13:03:31;8.90;;;7.00;;
30824;SDS011;17550;45.486;12.222;2023-06-04T13:05:57;12.90;;;7.68;;
30824;SDS011;17550;45.486;12.222;2023-06-04T13:08:23;9.15;;;6.93;;
30824;SDS011;17550;45.486;12.222;2023-06-04T13:10:52;10.77;;;6.35;;
30824;SDS011;17550;45.486;12.222;2023-06-04T13:13:20;13.98;;;7.43;;
30824;SDS011;17550;45.486;12.222;2023-06-04T13:15:46;7.95;;;6.40;;
30824;SDS011;17550;45.486;12.222;2023-06-04T13:18:12;9.45;;;6.40;;
30824;SDS011;17550;45.486;12.222;2023-06-04T13:20:39;8.73;;;6.03;;
30824;SDS011;17550;45.486;12.222;2023-06-04T13:23:05;12.52;;;6.65;;
30824;SDS011;17550;45.486;12.222;2023-06-04T13:25:31;12.38;;;6.80;;
30824;SDS011;17550;45.486;12.222;2023-06-04T13:28:00;14.70;;;6.95;;
30824;SDS011;17550;45.486;12.222;2023-06-04T13:30:26;11.60;;;7.15;;
30824;SDS011;17550;45.486;12.222;2023-06-04T13:32:52;8.63;;;6.43;;
30824;SDS011;17550;45.486;12.222;2023-06-04T13:35:19;12.27;;;6.60;;
30824;SDS011;17550;45.486;12.222;2023-06-04T13:37:44;11.98;;;6.38;;
30824;SDS011;17550;45.486;12.222;2023-06-04T13:40:10;14.45;;;7.20;;
30824;SDS011;17550;45.486;12.222;2023-06-04T13:42:36;10.55;;;6.72;;
30824;SDS011;17550;45.486;12.222;2023-06-04T13:45:02;7.07;;;6.22;;
30824;SDS011;17550;45.486;12.222;2023-06-04T13:47:28;10.00;;;6.53;;
30824;SDS011;17550;45.486;12.222;2023-06-04T13:49:54;9.25;;;6.55;;
30824;SDS011;17550;45.486;12.222;2023-06-04T13:52:19;10.27;;;6.55;;
30824;SDS011;17550;45.486;12.222;2023-06-04T13:54:46;11.68;;;6.88;;
30824;SDS011;17550;45.486;12.222;2023-06-04T13:57:11;8.55;;;6.05;;
30824;SDS011;17550;45.486;12.222;2023-06-04T13:59:37;8.68;;;6.80;;
30824;SDS011;17550;45.486;12.222;2023-06-04T14:02:04;7.07;;;5.68;;
30824;SDS011;17550;45.486;12.222;2023-06-04T14:04:30;6.93;;;5.57;;
30824;SDS011;17550;45.486;12.222;2023-06-04T14:06:56;12.65;;;6.28;;
30824;SDS011;17550;45.486;12.222;2023-06-04T14:09:22;9.85;;;6.72;;
30824;SDS011;17550;45.486;12.222;2023-06-04T14:11:47;8.48;;;6.07;;
30824;SDS011;17550;45.486;12.222;2023-06-04T14:14:18;8.73;;;6.65;;
30824;SDS011;17550;45.486;12.222;2023-06-04T14:16:46;8.00;;;5.63;;
30824;SDS011;17550;45.486;12.222;2023-06-04T14:19:13;10.88;;;6.28;;
30824;SDS011;17550;45.486;12.222;2023-06-04T14:21:40;9.93;;;5.88;;
30824;SDS011;17550;45.486;12.222;2023-06-04T14:24:06;9.07;;;6.32;;
30824;SDS011;17550;45.486;12.222;2023-06-04T14:26:32;10.88;;;6.20;;
30824;SDS011;17550;45.486;12.222;2023-06-04T14:28:58;8.60;;;6.18;;
30824;SDS011;17550;45.486;12.222;2023-06-04T14:31:24;9.00;;;6.10;;
30824;SDS011;17550;45.486;12.222;2023-06-04T14:33:50;6.63;;;5.55;;
30824;SDS011;17550;45.486;12.222;2023-06-04T14:36:16;8.93;;;5.78;;